This is the latest recevied weather packets stored in our database for station/object KJ4YLO. If no packets are shown the sender has not sent any weather packets the latest 10 day(s).
| Time | Temp. | Humidity | Pressure | Rain* | Wind** | Luminosity | Snow |
|---|---|---|---|---|---|---|---|
| 1778089527 | 21.11° C | 78% | 1015.5 hPa | 0 mm | - | 602 W/m² | - |
| 1778089222 | 20.56° C | 82% | 1015.5 hPa | 0 mm | - | 809 W/m² | - |
| 1778088920 | 20.56° C | 83% | 1015.9 hPa | 0 mm | - | 338 W/m² | - |
| 1778088617 | 20.56° C | 83% | 1015.5 hPa | 0 mm | - | 319 W/m² | - |
| 1778088314 | 20.56° C | 83% | 1015.5 hPa | 0 mm | - | 290 W/m² | - |
| 1778088011 | 20.56° C | 82% | 1015.5 hPa | 0 mm | - | 355 W/m² | - |
| 1778087708 | 20° C | 84% | 1015.9 hPa | 0 mm | - | 482 W/m² | - |
| 1778087405 | 19.44° C | 84% | 1015.9 hPa | 0 mm | - | 627 W/m² | - |
| 1778087103 | 20° C | 86% | 1016.3 hPa | 0 mm | - | 349 W/m² | - |
| 1778086800 | 19.44° C | 88% | 1016.3 hPa | 0 mm | - | 547 W/m² | - |
| 1778086499 | 18.89° C | 87% | 1016.3 hPa | 0 mm | - | 492 W/m² | - |
| 1778086194 | 18.89° C | 89% | 1015.5 hPa | 0 mm | - | 586 W/m² | - |
| 1778085891 | 18.89° C | 89% | 1015.9 hPa | 1.27 mm | - | 456 W/m² | - |
| 1778085589 | 18.33° C | 87% | 1016.9 hPa | 1.27 mm | - | 209 W/m² | - |
| 1778085284 | 18.33° C | 85% | 1017.6 hPa | 0 mm | - | 79 W/m² | - |
| 1778084979 | 18.89° C | 85% | 1016.9 hPa | 0 mm | - | 106 W/m² | - |
| 1778084676 | 18.33° C | 83% | 1017.3 hPa | 1.78 mm | - | 164 W/m² | - |
| 1778084368 | 18.89° C | 79% | 1017.3 hPa | 4.83 mm | - | 123 W/m² | - |
| 1778084066 | 18.89° C | 78% | 1017.3 hPa | 3.05 mm | - | 83 W/m² | - |
| 1778083763 | 18.89° C | 77% | 1017.6 hPa | 0 mm | - | 33 W/m² | - |
| 1778083460 | 18.89° C | 77% | 1017.3 hPa | 0 mm | - | 78 W/m² | - |
| 1778083158 | 19.44° C | 77% | 1017.3 hPa | 0 mm | - | 47 W/m² | - |
| 1778082855 | 19.44° C | 76% | 1017.3 hPa | 0 mm | - | 44 W/m² | - |
| 1778081737 | 19.44° C | 72% | 1016.6 hPa | 0 mm | - | 123 W/m² | - |
| 1778081434 | 20° C | 69% | 1016.6 hPa | 0 mm | - | 61 W/m² | - |
* Rain latest hour (hover to see other rain measurements)
** Current wind speed in m/s (hover to see current wind gust speed)